Terminal Aerodrome Forecast
Issued by NWS Portland, OR

Home | Current Version | Previous Version | Text Only | Print | Product List | Glossary On
Versions: 1 2 3 4 5 6 7 8 9 10 11 12 13 14 15 16 17 18 19 20 21 22 23 24 25 26
000
FTUS46 KPQR 191739
TAFTTD
TAF
KTTD 191739Z 1918/2018 22015G23KT P6SM -RA BKN070
     FM192000 21011KT P6SM -SHRA BKN060
     FM200400 19004KT P6SM -RA SCT015 OVC050
     FM200800 15006KT 6SM -RA OVC040=

USA.gov is the U.S. government's official web portal to all federal, state and local government web resources and services.